Nambouwalu, Fiji
Current Conditions -  °F | °C
As of 7:00 AM on Friday 31 Oct 2014 (Local Time) from NFNA Reporting Station
Broken Clouds Broken Clouds  
Wind Chill: 77°   Ceiling: 12000
Heat Index: 78°   Visibility: 31mi
Dew Point: 73°   Wind: 8mph
Humidity: 89%   Direction: 130°SE
Pressure: 29.97"   Gusts: NA
Location:  16.99°S, 178.69°E
Report Text: NFNA 301900Z 13007KT 50KM SCT020 SCT045 BKN120 25/23 Q1015 RMKRR NIL
Loading
Personal Weather Stations






























Interactive Weather Map New forecast layout! Learn more

10-Day Weather Forecast

Advertisements
Track Severe Weather on mobile